El Paso, Wisconsin
Current Conditions -  °F | °C
As of 2:31 AM on Friday 24 Oct 2014 (Local Time) from KRGK Reporting Station
Haze Haze  
Wind Chill: 46°   Ceiling: 400
Heat Index: 48°   Visibility: 4mi
Dew Point: 48°   Wind: 5mph
Humidity: 100%   Direction: 140°SE
Pressure: 29.98"   Gusts: NA
Location:  44.7744°N, 92.4335°W
Report Text: KRGK 240731Z AUTO 14004KT 4SM BR OVC004 09/09 A2998 RMK AO2
Loading
Personal Weather Stations






























Interactive Weather Map
Tropical Storm Tracking
New forecast layout! Learn more

10-Day Weather Forecast

Advertisements
Track Severe Weather on mobile